Time;durP1;ratioP1;P1;durP2;ratioP2;P2;SDS_P1;SDS_P2;PMS_P1;PMS_P2;Temp;Humidity;BMP_temperature;BMP_pressure;BME280_temperature;BME280_humidity;BME280_pressure;Samples;Min_cycle;Max_cycle;Signal;HPM_P1;HPM_P2
2022/04/05 00:00:42;;;;;;;9.03;8.13;;;;;;;4.73;85.54;94947.47;4360477;32;20211;-59
2022/04/05 00:03:08;;;;;;;10.30;9.43;;;;;;;4.70;85.85;94939.34;4358050;32;20215;-59
2022/04/05 00:05:33;;;;;;;11.60;8.40;;;;;;;4.55;85.28;94937.53;4358125;32;20188;-59
2022/04/05 00:07:58;;;;;;;9.63;8.73;;;;;;;4.48;86.12;94935.16;4363880;32;20200;-59
2022/04/05 00:10:24;;;;;;;9.17;8.37;;;;;;;4.54;86.37;94930.69;4360867;32;20346;-59
2022/04/05 00:12:49;;;;;;;8.57;7.77;;;;;;;4.67;86.24;94934.63;4360030;32;20245;-58
2022/04/05 00:15:15;;;;;;;10.30;8.30;;;;;;;4.52;86.59;94924.13;4355724;32;20189;-59
2022/04/05 00:17:40;;;;;;;9.30;8.40;;;;;;;4.45;86.84;94927.03;4361638;32;20211;-59
2022/04/05 00:20:07;;;;;;;10.13;8.30;;;;;;;4.46;87.08;94912.84;4361065;32;20232;-59
2022/04/05 00:22:32;;;;;;;8.87;8.10;;;;;;;4.40;87.45;94916.50;4360876;32;20200;-59
2022/04/05 00:24:58;;;;;;;9.70;8.50;;;;;;;4.40;87.77;94911.25;4360886;32;20274;-59
2022/04/05 00:27:23;;;;;;;8.67;7.93;;;;;;;4.47;87.14;94909.97;4364176;32;20264;-59
2022/04/05 00:29:48;;;;;;;9.37;8.57;;;;;;;4.59;87.54;94908.87;4360796;32;20189;-59
2022/04/05 00:32:14;;;;;;;10.07;8.17;;;;;;;4.37;87.63;94914.41;4359599;32;20255;-59
2022/04/05 00:34:39;;;;;;;8.97;8.27;;;;;;;4.55;87.25;94899.97;4348934;32;20302;-59
2022/04/05 00:37:05;;;;;;;9.60;8.67;;;;;;;4.46;87.49;94905.75;4362192;32;20185;-59
2022/04/05 00:39:30;;;;;;;9.37;8.47;;;;;;;4.58;87.92;94900.22;4351364;32;20235;-58
2022/04/05 00:41:56;;;;;;;9.77;8.77;;;;;;;4.47;87.84;94902.06;4360451;32;20231;-60
2022/04/05 00:44:22;;;;;;;10.00;9.00;;;;;;;4.46;87.63;94904.97;4358409;32;20231;-59
2022/04/05 00:46:49;;;;;;;10.50;9.50;;;;;;;4.35;88.24;94891.06;4360359;32;20290;-59
2022/04/05 00:49:32;;;;;;;10.57;9.47;;;;;;;4.25;89.09;94890.28;4358934;32;20192;-59
2022/04/05 00:51:58;;;;;;;9.60;8.70;;;;;;;4.52;87.94;94896.03;4355225;32;20336;-59
2022/04/05 00:54:25;;;;;;;10.73;9.63;;;;;;;4.60;86.90;94877.09;4359109;32;20292;-59
2022/04/05 00:56:55;;;;;;;11.30;8.83;;;;;;;4.41;86.59;94868.19;4363520;32;20284;-57
2022/04/05 00:59:22;;;;;;;9.80;8.90;;;;;;;4.65;86.02;94863.16;4360637;32;20281;-59
2022/04/05 01:01:49;;;;;;;8.97;8.20;;;;;;;4.57;85.63;94851.38;4355141;32;20339;-59
2022/04/05 01:04:15;;;;;;;10.03;9.13;;;;;;;4.65;85.73;94866.56;4346330;32;20297;-58
2022/04/05 01:06:44;;;;;;;10.20;8.90;;;;;;;4.64;85.79;94870.25;4353474;32;20292;-58
2022/04/05 01:09:10;;;;;;;8.90;8.00;;;;;;;4.67;84.75;94846.09;4356342;32;20277;-56
2022/04/05 01:11:35;;;;;;;9.83;8.83;;;;;;;4.59;85.38;94856.34;4345435;32;20288;-59
2022/04/05 01:14:01;;;;;;;10.27;9.27;;;;;;;4.58;84.37;94849.50;4333549;32;20185;-58
2022/04/05 01:16:26;;;;;;;10.10;9.00;;;;;;;4.72;83.84;94847.91;4356877;32;20231;-58
2022/04/05 01:18:52;;;;;;;8.30;7.23;;;;;;;4.56;83.78;94838.53;4359306;32;20193;-59
2022/04/05 01:21:18;;;;;;;10.43;7.87;;;;;;;4.65;83.01;94852.66;4356466;32;20201;-58
2022/04/05 01:24:05;;;;;;;8.23;7.53;;;;;;;4.71;82.87;94851.59;4355275;32;20198;-58
2022/04/05 01:26:47;;;;;;;7.83;7.23;;;;;;;4.81;82.68;94841.81;4353788;32;20184;-58
2022/04/05 01:29:13;;;;;;;7.90;7.20;;;;;;;4.76;83.04;94849.75;4351897;32;20356;-58
2022/04/05 01:31:41;;;;;;;9.30;8.40;;;;;;;4.68;83.35;94837.16;4344974;32;20280;-59
2022/04/05 01:34:07;;;;;;;9.10;8.27;;;;;;;4.84;84.00;94835.25;4359204;32;20277;-58
2022/04/05 01:36:33;;;;;;;9.03;8.23;;;;;;;4.81;82.82;94841.03;4361552;32;20296;-59
2022/04/05 01:38:58;;;;;;;8.30;7.57;;;;;;;4.79;83.38;94849.19;4367788;32;20299;-59
2022/04/05 01:41:24;;;;;;;9.70;8.67;;;;;;;4.82;83.53;94853.12;4363219;32;20356;-58
2022/04/05 01:43:49;;;;;;;8.03;7.43;;;;;;;4.71;84.25;94844.50;4354023;32;20203;-58
2022/04/05 01:46:15;;;;;;;8.17;7.47;;;;;;;4.77;83.63;94851.31;4349140;32;20209;-58
2022/04/05 01:48:40;;;;;;;8.30;7.43;;;;;;;4.83;83.52;94849.44;4360445;32;20203;-58
2022/04/05 01:51:07;;;;;;;7.97;7.37;;;;;;;4.75;84.18;94852.62;4355544;32;20197;-59
2022/04/05 01:53:32;;;;;;;9.20;8.33;;;;;;;4.65;84.89;94832.44;4358781;32;20193;-58
2022/04/05 01:55:57;;;;;;;8.60;7.80;;;;;;;4.66;85.05;94841.87;4361098;32;20335;-58
2022/04/05 01:58:24;;;;;;;8.47;7.77;;;;;;;4.63;85.17;94849.50;4363105;32;20193;-59
2022/04/05 02:00:50;;;;;;;8.13;7.43;;;;;;;4.57;85.62;94843.50;4364390;32;20197;-59
2022/04/05 02:03:15;;;;;;;8.57;7.83;;;;;;;4.59;85.43;94832.69;4361390;32;20269;-59
2022/04/05 02:05:41;;;;;;;8.10;7.43;;;;;;;4.61;85.47;94844.53;4362551;32;20189;-58
2022/04/05 02:08:06;;;;;;;7.97;7.27;;;;;;;4.37;86.59;94840.91;4348827;32;20310;-58
2022/04/05 02:10:31;;;;;;;9.57;7.97;;;;;;;4.23;88.16;94826.75;4362152;32;20256;-59
2022/04/05 02:12:57;;;;;;;8.70;7.90;;;;;;;4.31;87.97;94813.09;4352384;32;20197;-58
2022/04/05 02:15:22;;;;;;;8.07;7.43;;;;;;;4.38;88.47;94827.50;4359706;32;20192;-58
2022/04/05 02:17:47;;;;;;;8.10;7.40;;;;;;;4.30;88.05;94807.06;4360971;32;20200;-59
2022/04/05 02:20:14;;;;;;;7.83;7.23;;;;;;;4.39;87.35;94802.03;4368071;32;20185;-59
2022/04/05 02:22:39;;;;;;;8.67;7.83;;;;;;;4.37;86.56;94798.88;4365673;32;20185;-59
2022/04/05 02:25:05;;;;;;;7.63;7.03;;;;;;;4.51;85.50;94802.53;4361558;32;20273;-63
2022/04/05 02:27:30;;;;;;;7.73;6.93;;;;;;;4.61;85.01;94789.34;4362614;32;20203;-58
2022/04/05 02:29:55;;;;;;;7.37;6.67;;;;;;;4.56;85.06;94793.88;4349940;32;20190;-58
2022/04/05 02:32:20;;;;;;;7.17;6.47;;;;;;;4.56;84.96;94786.00;4357015;32;20234;-58
2022/04/05 02:34:46;;;;;;;8.87;6.40;;;;;;;4.76;83.09;94786.69;4362057;32;20241;-58
2022/04/05 02:37:11;;;;;;;7.07;6.30;;;;;;;4.71;82.69;94770.16;4363003;32;20230;-57
2022/04/05 02:39:36;;;;;;;7.13;5.90;;;;;;;4.79;81.71;94780.09;4359812;32;20264;-58
2022/04/05 02:42:02;;;;;;;6.50;5.90;;;;;;;4.92;81.37;94776.09;4363919;32;20188;-59
2022/04/05 02:44:27;;;;;;;6.27;5.83;;;;;;;4.90;80.58;94768.50;4341490;32;20178;-58
2022/04/05 02:46:53;;;;;;;5.23;4.90;;;;;;;4.91;80.35;94787.66;4361130;32;20212;-58
2022/04/05 02:49:18;;;;;;;6.40;5.80;;;;;;;4.99;79.46;94773.97;4348549;32;20181;-59
2022/04/05 02:51:43;;;;;;;5.37;4.97;;;;;;;5.14;79.73;94771.25;4362070;32;20184;-59
2022/04/05 02:54:09;;;;;;;5.50;5.00;;;;;;;5.17;78.66;94770.72;4361053;32;20189;-58
2022/04/05 02:56:34;;;;;;;5.70;5.27;;;;;;;5.21;77.96;94758.56;4363873;32;20193;-58
2022/04/05 02:58:59;;;;;;;5.33;4.77;;;;;;;5.13;77.52;94774.94;4337683;32;20228;-58
2022/04/05 03:01:25;;;;;;;5.60;5.20;;;;;;;5.26;77.86;94755.91;4353949;32;20188;-59
2022/04/05 03:03:50;;;;;;;5.03;4.63;;;;;;;5.13;77.39;94751.28;4361932;32;20271;-60
2022/04/05 03:06:16;;;;;;;5.47;4.97;;;;;;;5.32;77.09;94751.41;4354658;32;20185;-59
2022/04/05 03:08:42;;;;;;;5.53;4.33;;;;;;;5.32;76.64;94738.25;4368713;32;20193;-59
2022/04/05 03:11:07;;;;;;;5.20;4.77;;;;;;;5.27;75.95;94760.09;4346424;32;20396;-59
2022/04/05 03:13:33;;;;;;;5.00;4.60;;;;;;;5.28;76.13;94758.25;4360222;32;20208;-58
2022/04/05 03:15:58;;;;;;;5.13;4.73;;;;;;;5.38;75.03;94756.38;4358016;32;20206;-58
2022/04/05 03:18:24;;;;;;;5.57;5.07;;;;;;;5.45;74.78;94751.56;4372115;32;20259;-58
2022/04/05 03:20:50;;;;;;;5.60;5.10;;;;;;;5.44;74.42;94754.47;4347669;32;20223;-58
2022/04/05 03:23:15;;;;;;;5.40;5.00;;;;;;;5.49;74.99;94747.31;4361008;32;20246;-59
2022/04/05 03:25:41;;;;;;;5.00;4.70;;;;;;;5.61;74.35;94735.69;4360061;32;20193;-57
2022/04/05 03:28:06;;;;;;;5.53;5.03;;;;;;;5.57;74.35;94745.97;4365145;32;20268;-58
2022/04/05 03:30:32;;;;;;;4.70;4.40;;;;;;;5.58;74.10;94749.37;4361292;32;20205;-59
2022/04/05 03:32:57;;;;;;;4.83;4.47;;;;;;;5.64;75.07;94743.78;4369288;32;20246;-59
2022/04/05 03:35:23;;;;;;;5.20;4.87;;;;;;;5.64;73.53;94743.78;4363584;32;20273;-58
2022/04/05 03:37:48;;;;;;;4.60;4.30;;;;;;;5.69;74.28;94751.63;4367235;32;20192;-58
2022/04/05 03:40:14;;;;;;;4.73;4.43;;;;;;;5.62;74.45;94745.12;4348366;32;20228;-58
2022/04/05 03:42:40;;;;;;;6.33;5.07;;;;;;;5.64;74.03;94745.62;4361590;32;20203;-58
2022/04/05 03:45:05;;;;;;;5.47;5.00;;;;;;;5.74;74.06;94737.66;4354767;32;20197;-58
2022/04/05 03:47:31;;;;;;;5.27;4.80;;;;;;;5.66;74.60;94746.12;4374036;32;20202;-58
2022/04/05 03:49:57;;;;;;;5.00;4.63;;;;;;;5.76;73.98;94740.78;4352113;32;20196;-58
2022/04/05 03:52:23;;;;;;;5.73;5.13;;;;;;;5.83;73.86;94749.13;4365249;32;20184;-59
2022/04/05 03:54:49;;;;;;;5.57;5.17;;;;;;;5.73;73.89;94736.09;4362477;32;20288;-59
2022/04/05 03:57:14;;;;;;;5.83;5.40;;;;;;;5.75;74.93;94733.97;4360019;32;20197;-59
2022/04/05 03:59:40;;;;;;;5.47;4.87;;;;;;;5.79;74.59;94733.13;4358888;32;20185;-59
2022/04/05 04:02:05;;;;;;;5.43;4.93;;;;;;;5.93;74.51;94728.03;4359590;32;20251;-59
2022/04/05 04:04:31;;;;;;;5.97;5.33;;;;;;;5.89;74.57;94718.31;4349288;32;20211;-59
2022/04/05 04:06:56;;;;;;;6.17;5.63;;;;;;;5.76;74.74;94733.69;4360905;32;20189;-59
2022/04/05 04:09:22;;;;;;;4.90;4.60;;;;;;;5.81;75.18;94743.41;4356038;32;20278;-59
2022/04/05 04:11:48;;;;;;;5.17;4.83;;;;;;;5.88;75.74;94728.03;4346728;32;20192;-59
2022/04/05 04:14:14;;;;;;;5.60;5.20;;;;;;;5.88;76.94;94728.03;4359852;32;20193;-58
2022/04/05 04:16:39;;;;;;;5.90;5.40;;;;;;;5.83;77.53;94718.34;4357196;32;20269;-59
2022/04/05 04:19:05;;;;;;;5.50;5.00;;;;;;;5.79;77.84;94719.97;4362151;32;20203;-63
2022/04/05 04:21:30;;;;;;;4.73;4.33;;;;;;;5.67;78.23;94721.41;4359460;32;20205;-59
2022/04/05 04:23:56;;;;;;;4.67;4.30;;;;;;;5.70;76.81;94723.47;4362654;32;20186;-58
2022/04/05 04:26:21;;;;;;;5.13;4.83;;;;;;;5.77;76.89;94710.78;4359309;32;20212;-58
2022/04/05 04:28:50;;;;;;;4.67;4.37;;;;;;;5.79;75.46;94713.94;4370516;32;20242;-59
2022/04/05 04:31:15;;;;;;;4.17;3.93;;;;;;;5.78;75.42;94728.16;4372108;32;20250;-58
2022/04/05 04:33:40;;;;;;;4.33;4.03;;;;;;;5.70;75.37;94721.63;4366867;32;20281;-58
2022/04/05 04:36:06;;;;;;;4.87;4.47;;;;;;;5.81;75.24;94736.28;4359520;32;20283;-60
2022/04/05 04:38:31;;;;;;;5.27;4.77;;;;;;;5.91;74.69;94721.47;4367953;32;20195;-59
2022/04/05 04:40:57;;;;;;;4.70;4.30;;;;;;;5.87;74.17;94731.72;4360989;32;20199;-58
2022/04/05 04:43:24;;;;;;;4.57;4.27;;;;;;;5.90;74.67;94715.41;4368464;32;20203;-57
2022/04/05 04:45:49;;;;;;;4.60;4.30;;;;;;;5.90;75.07;94715.41;4353614;32;20189;-58
2022/04/05 04:48:15;;;;;;;4.67;4.37;;;;;;;5.92;74.03;94715.94;4363260;32;20371;-59
2022/04/05 04:50:40;;;;;;;5.00;4.70;;;;;;;5.85;74.88;94731.22;4366385;32;20222;-57
2022/04/05 04:53:05;;;;;;;4.90;4.60;;;;;;;5.76;75.16;94730.28;4360131;32;20190;-59
2022/04/05 04:55:32;;;;;;;5.70;5.30;;;;;;;5.71;76.21;94732.94;4349190;32;20210;-58
2022/04/05 04:57:58;;;;;;;5.00;4.70;;;;;;;5.81;76.83;94727.59;4349630;32;20211;-59
2022/04/05 05:00:23;;;;;;;5.40;4.90;;;;;;;5.80;75.92;94733.94;4356116;32;20340;-59
2022/04/05 05:02:50;;;;;;;5.30;5.00;;;;;;;5.75;76.17;94733.97;4361585;32;20204;-59
2022/04/05 05:05:18;;;;;;;4.97;4.57;;;;;;;5.89;75.86;94747.28;4350235;32;20204;-58
2022/04/05 05:07:44;;;;;;;5.83;5.40;;;;;;;6.05;74.39;94728.41;4359834;32;20289;-58
2022/04/05 05:10:14;;;;;;;4.97;4.47;;;;;;;6.01;75.60;94737.19;4370542;32;20277;-59
2022/04/05 05:12:40;;;;;;;5.57;5.07;;;;;;;5.93;74.61;94730.66;4351067;32;20196;-59
2022/04/05 05:15:08;;;;;;;6.07;5.63;;;;;;;6.05;75.13;94731.06;4356181;32;20289;-58
2022/04/05 05:17:34;;;;;;;5.00;4.60;;;;;;;5.97;75.73;94734.31;4354636;32;20244;-59
2022/04/05 05:19:59;;;;;;;5.77;5.17;;;;;;;6.00;75.50;94733.75;4357539;32;20338;-59
2022/04/05 05:22:24;;;;;;;5.47;5.00;;;;;;;6.16;74.61;94729.91;4364750;32;20291;-59
2022/04/05 05:24:50;;;;;;;5.53;4.77;;;;;;;6.13;74.35;94734.94;4359271;32;20189;-59
2022/04/05 05:27:15;;;;;;;5.10;4.70;;;;;;;6.00;74.83;94741.66;4358491;32;20242;-59
2022/04/05 05:29:40;;;;;;;5.60;5.10;;;;;;;6.00;75.02;94741.66;4350222;32;20197;-59
2022/04/05 05:32:06;;;;;;;5.57;5.13;;;;;;;6.03;75.42;94741.06;4361886;32;20201;-58
2022/04/05 05:34:31;;;;;;;7.30;5.20;;;;;;;5.96;75.75;94750.37;4364323;32;20205;-59
2022/04/05 05:36:57;;;;;;;6.37;5.27;;;;;;;6.19;76.08;94744.38;4363147;32;20189;-58
2022/04/05 05:39:22;;;;;;;5.30;4.90;;;;;;;6.08;75.38;94748.16;4363303;32;20215;-59
2022/04/05 05:41:47;;;;;;;5.60;5.10;;;;;;;6.06;76.14;94747.63;4363748;32;20236;-59
2022/04/05 05:44:12;;;;;;;4.93;4.53;;;;;;;6.06;75.29;94740.53;4363426;32;20189;-59
2022/04/05 05:46:38;;;;;;;5.77;5.27;;;;;;;6.11;74.97;94753.66;4362159;32;20204;-58
2022/04/05 05:49:03;;;;;;;5.17;4.73;;;;;;;6.16;75.57;94750.97;4365956;32;20192;-59
2022/04/05 05:51:28;;;;;;;5.90;5.40;;;;;;;6.17;74.51;94757.81;4361553;32;20189;-60
2022/04/05 05:53:54;;;;;;;5.07;4.67;;;;;;;6.26;75.17;94752.69;4362555;32;20248;-59
2022/04/05 05:56:19;;;;;;;5.10;4.70;;;;;;;6.24;75.16;94751.41;4355264;32;20188;-59
2022/04/05 05:58:46;;;;;;;5.13;4.60;;;;;;;6.24;75.66;94764.56;4353738;32;20224;-59
2022/04/05 06:01:11;;;;;;;5.03;4.60;;;;;;;6.07;75.71;94773.69;4362059;32;20189;-58
2022/04/05 06:03:36;;;;;;;5.50;5.00;;;;;;;6.25;75.56;94763.50;4349979;32;20348;-58
2022/04/05 06:06:02;;;;;;;4.57;4.27;;;;;;;6.16;76.59;94787.84;4364096;32;20189;-58
2022/04/05 06:08:27;;;;;;;5.33;4.93;;;;;;;6.18;76.98;94769.91;4361818;32;20185;-59
2022/04/05 06:10:52;;;;;;;5.47;5.07;;;;;;;6.12;77.38;94781.53;4362548;32;20227;-59
2022/04/05 06:13:18;;;;;;;4.90;4.50;;;;;;;6.10;78.03;94794.19;4358771;32;20246;-58
2022/04/05 06:15:43;;;;;;;4.50;4.20;;;;;;;6.03;78.50;94788.47;4362186;32;20189;-58
2022/04/05 06:18:08;;;;;;;5.40;4.90;;;;;;;5.94;79.03;94795.41;4352262;32;20219;-59
2022/04/05 06:20:34;;;;;;;5.27;4.87;;;;;;;5.92;80.28;94800.16;4372158;32;20181;-58
2022/04/05 06:23:02;;;;;;;5.33;5.03;;;;;;;6.02;79.92;94799.31;4356116;32;20189;-59
2022/04/05 06:25:30;;;;;;;6.13;5.60;;;;;;;6.06;80.11;94800.28;4362097;32;20184;-58
2022/04/05 06:27:57;;;;;;;5.60;5.20;;;;;;;5.84;81.59;94811.25;4361634;32;20278;-58
2022/04/05 06:30:23;;;;;;;6.43;5.83;;;;;;;5.85;82.29;94808.34;4361123;32;20280;-58
2022/04/05 06:32:50;;;;;;;6.20;5.60;;;;;;;5.77;82.56;94811.56;4362833;32;20315;-59
2022/04/05 06:35:16;;;;;;;6.20;5.70;;;;;;;5.78;83.27;94807.09;4365100;32;20319;-59
2022/04/05 06:37:44;;;;;;;6.17;5.57;;;;;;;5.77;84.13;94816.84;4361776;32;20301;-58
2022/04/05 06:40:12;;;;;;;6.83;6.27;;;;;;;5.78;85.03;94815.78;4362182;32;20251;-59
2022/04/05 06:42:43;;;;;;;6.73;6.03;;;;;;;5.89;84.84;94813.88;4362558;32;20285;-59
2022/04/05 06:45:14;;;;;;;7.27;6.57;;;;;;;5.83;85.04;94809.66;4361084;32;20362;-59
2022/04/05 06:47:40;;;;;;;16.27;6.57;;;;;;;5.88;86.20;94799.09;4360970;32;20296;-58
2022/04/05 06:50:07;;;;;;;28.83;6.63;;;;;;;6.09;88.47;94800.53;4371716;32;20349;-59
2022/04/05 06:52:38;;;;;;;18.07;5.63;;;;;;;6.94;90.76;94801.72;4363562;32;20223;-58
2022/04/05 06:55:04;;;;;;;10.83;5.77;;;;;;;7.08;87.41;94802.59;4360101;32;20331;-58
2022/04/05 06:57:30;;;;;;;5.93;5.47;;;;;;;7.02;83.23;94793.97;4361917;32;20356;-58
2022/04/05 06:59:55;;;;;;;6.90;5.40;;;;;;;7.04;82.61;94798.97;4354423;32;20316;-59
2022/04/05 07:02:20;;;;;;;8.73;5.17;;;;;;;7.09;82.62;94798.88;4358392;32;20215;-59
2022/04/05 07:04:46;;;;;;;5.60;5.10;;;;;;;7.69;82.35;94793.84;4362790;32;20223;-59
2022/04/05 07:07:11;;;;;;;5.27;4.87;;;;;;;7.56;80.78;94792.69;4362251;32;20242;-58
2022/04/05 07:09:37;;;;;;;5.00;4.60;;;;;;;7.62;79.90;94772.28;4361769;32;20200;-59
2022/04/05 07:12:03;;;;;;;9.10;5.07;;;;;;;7.48;79.96;94785.44;4353006;32;20251;-58
2022/04/05 07:14:28;;;;;;;4.70;4.40;;;;;;;7.59;81.75;94790.28;4347450;32;20334;-59
2022/04/05 07:16:53;;;;;;;6.17;4.80;;;;;;;7.87;81.31;94791.16;4360660;32;20205;-59
2022/04/05 07:19:19;;;;;;;4.97;4.50;;;;;;;8.03;79.67;94794.34;4355712;32;20197;-59
2022/04/05 07:21:44;;;;;;;5.40;4.93;;;;;;;8.04;78.65;94793.25;4360592;32;20199;-59
2022/04/05 07:24:09;;;;;;;9.50;6.00;;;;;;;7.76;78.79;94788.97;4361562;32;20193;-41
2022/04/05 07:26:35;;;;;;;9.63;5.43;;;;;;;8.69;87.99;94789.75;4357600;32;20204;-55
2022/04/05 07:29:00;;;;;;;8.53;4.60;;;;;;;10.17;77.04;94788.84;4357824;32;20188;-41
2022/04/05 07:31:25;;;;;;;5.40;4.40;;;;;;;11.41;71.06;94786.00;4350757;32;20233;-43
2022/04/05 07:33:51;;;;;;;5.03;4.63;;;;;;;11.36;65.16;94788.81;4354252;32;20210;-58
2022/04/05 07:36:16;;;;;;;5.17;4.77;;;;;;;10.02;67.07;94796.38;4358876;32;20189;-58
2022/04/05 07:38:41;;;;;;;5.50;5.10;;;;;;;8.85;71.58;94797.09;4360048;32;20239;-58
2022/04/05 07:41:07;;;;;;;5.33;4.97;;;;;;;8.01;74.66;94793.03;4357134;32;20212;-59
2022/04/05 07:43:33;;;;;;;4.70;4.40;;;;;;;7.46;76.28;94787.59;4363587;32;20207;-59
2022/04/05 07:45:59;;;;;;;7.43;5.50;;;;;;;7.23;79.16;94794.50;4345360;32;20190;-58
2022/04/05 07:48:28;;;;;;;6.00;5.20;;;;;;;7.33;78.92;94785.63;4343979;32;20351;-58
2022/04/05 07:50:54;;;;;;;5.33;4.93;;;;;;;7.20;78.97;94789.78;4357348;32;20231;-58
2022/04/05 07:53:19;;;;;;;4.73;4.43;;;;;;;6.91;80.07;94787.25;4361798;32;20270;-59
2022/04/05 07:55:46;;;;;;;6.47;5.20;;;;;;;6.89;80.61;94790.16;4359310;32;20326;-58
2022/04/05 07:58:11;;;;;;;5.00;4.60;;;;;;;6.73;80.59;94790.63;4360273;32;20185;-59
2022/04/05 08:00:37;;;;;;;5.03;4.73;;;;;;;6.97;80.22;94795.87;4347246;32;20298;-57
2022/04/05 08:03:02;;;;;;;4.93;4.63;;;;;;;7.01;80.21;94775.81;4355227;32;20185;-58
2022/04/05 08:05:27;;;;;;;5.43;5.03;;;;;;;6.97;80.78;94806.44;4360227;32;20207;-59
2022/04/05 08:07:53;;;;;;;5.03;4.63;;;;;;;6.97;80.68;94790.63;4345848;32;20189;-59
2022/04/05 08:10:19;;;;;;;5.40;4.90;;;;;;;7.12;80.00;94796.47;4357642;32;20283;-58
2022/04/05 08:12:47;;;;;;;4.60;4.30;;;;;;;7.06;80.47;94791.56;4359550;32;20305;-54
2022/04/05 08:15:15;;;;;;;5.43;4.40;;;;;;;7.13;80.16;94799.91;4367408;32;20189;-55
2022/04/05 08:17:41;;;;;;;4.40;4.10;;;;;;;7.14;81.02;94806.75;4360138;32;20345;-58
2022/04/05 08:20:08;;;;;;;5.10;4.60;;;;;;;7.36;81.11;94799.06;4360212;32;20277;-58
2022/04/05 08:22:33;;;;;;;4.60;4.27;;;;;;;7.50;81.28;94807.03;4362059;32;20181;-56
2022/04/05 08:24:59;;;;;;;4.13;3.83;;;;;;;7.47;81.05;94811.03;4345980;32;20281;-57
2022/04/05 08:27:24;;;;;;;4.33;4.00;;;;;;;7.76;80.67;94813.50;4357432;32;20189;-56
2022/04/05 08:29:50;;;;;;;4.50;4.10;;;;;;;7.50;80.97;94814.94;4367209;32;20192;-55
2022/04/05 08:32:15;;;;;;;4.50;4.20;;;;;;;7.58;81.40;94827.50;4352062;32;20197;-56
2022/04/05 08:34:42;;;;;;;3.70;3.40;;;;;;;7.57;81.44;94816.16;4354776;32;20235;-56
2022/04/05 08:37:08;;;;;;;3.63;3.30;;;;;;;7.80;81.07;94811.84;4358994;32;20188;-55
2022/04/05 08:39:36;;;;;;;4.27;3.60;;;;;;;7.80;81.25;94809.22;4363337;32;20291;-57
2022/04/05 08:42:03;;;;;;;3.27;3.07;;;;;;;7.77;81.15;94809.78;4355313;32;20278;-58
2022/04/05 08:44:29;;;;;;;4.00;3.63;;;;;;;7.84;80.94;94809.44;4362044;32;20355;-58
2022/04/05 08:46:54;;;;;;;3.60;3.30;;;;;;;7.84;80.32;94820.00;4354364;32;20359;-57
2022/04/05 08:49:21;;;;;;;3.67;3.33;;;;;;;7.85;81.61;94821.56;4344488;32;20219;-57
2022/04/05 08:51:47;;;;;;;4.00;3.30;;;;;;;7.83;81.00;94829.78;4337033;32;20241;-57
2022/04/05 08:54:12;;;;;;;3.27;2.97;;;;;;;7.98;81.97;94823.47;4353288;32;20334;-57
2022/04/05 08:56:37;;;;;;;5.50;3.30;;;;;;;8.05;80.27;94815.97;4351470;32;20267;-55
2022/04/05 08:59:03;;;;;;;5.33;2.87;;;;;;;8.15;79.46;94817.63;4336465;32;20189;-57
2022/04/05 09:01:29;;;;;;;3.27;3.03;;;;;;;7.92;80.04;94828.03;4329888;32;20215;-57
2022/04/05 09:03:58;;;;;;;2.70;2.60;;;;;;;7.94;79.67;94830.38;4345562;32;20193;-55
2022/04/05 09:06:32;;;;;;;3.10;2.83;;;;;;;8.01;79.81;94822.88;4345703;32;20354;-56
2022/04/05 09:08:59;;;;;;;3.97;3.10;;;;;;;8.03;80.06;94831.31;4339386;32;20278;-57
2022/04/05 09:11:28;;;;;;;3.27;3.00;;;;;;;7.97;79.95;94829.81;4347078;32;20282;-59
2022/04/05 09:14:00;;;;;;;4.13;2.53;;;;;;;8.24;79.46;94834.41;4358193;32;20349;-55
2022/04/05 09:16:31;;;;;;;2.47;2.30;;;;;;;8.41;78.13;94839.16;4359576;32;20380;-57
2022/04/05 09:18:58;;;;;;;2.93;2.73;;;;;;;8.45;78.88;94834.88;4361343;32;20379;-52
2022/04/05 09:21:24;;;;;;;2.67;2.57;;;;;;;8.24;78.18;94840.47;4359082;32;20285;-56
2022/04/05 09:23:52;;;;;;;2.47;2.27;;;;;;;8.36;78.45;94833.94;4358717;32;20297;-50
2022/04/05 09:26:18;;;;;;;2.83;2.63;;;;;;;8.53;77.94;94852.69;4357262;32;20219;-58
2022/04/05 09:28:50;;;;;;;2.63;2.33;;;;;;;8.50;78.39;94848.00;4346074;32;20281;-53
2022/04/05 09:31:20;;;;;;;2.43;2.30;;;;;;;8.35;78.95;94845.59;4350125;32;20339;-54
2022/04/05 09:34:05;;;;;;;2.77;2.50;;;;;;;8.30;78.68;94845.69;4356085;32;20286;-54
2022/04/05 09:36:39;;;;;;;2.50;2.40;;;;;;;8.47;78.64;94840.66;4350034;32;20288;-58
2022/04/05 09:39:17;;;;;;;2.50;2.30;;;;;;;8.59;78.83;94846.22;4358124;32;20287;-57
2022/04/05 09:41:47;;;;;;;2.93;2.67;;;;;;;8.52;78.29;94845.84;4360151;32;20307;-55
2022/04/05 09:44:23;;;;;;;2.80;2.60;;;;;;;8.80;78.02;94836.84;4356607;32;20293;-57
2022/04/05 09:46:52;;;;;;;2.63;2.53;;;;;;;8.75;78.40;94846.72;4342461;32;20385;-57
2022/04/05 09:49:17;;;;;;;2.77;2.50;;;;;;;8.74;79.65;94842.53;4328400;32;20317;-57
2022/04/05 09:51:45;;;;;;;3.30;3.00;;;;;;;8.79;77.67;94835.28;4329365;33;20304;-55
2022/04/05 09:54:19;;;;;;;2.90;2.57;;;;;;;9.03;77.74;94843.03;4338652;32;20190;-54
2022/04/05 09:56:45;;;;;;;2.70;2.50;;;;;;;9.07;77.77;94845.88;4344475;32;20379;-56
2022/04/05 09:59:18;;;;;;;2.40;2.30;;;;;;;8.98;78.28;94847.63;4341262;32;20300;-56
2022/04/05 10:01:45;;;;;;;3.20;3.00;;;;;;;9.25;77.57;94837.81;4335412;32;20189;-54
2022/04/05 10:04:16;;;;;;;2.70;2.50;;;;;;;9.22;76.72;94837.62;4345522;32;20277;-57
2022/04/05 10:06:44;;;;;;;5.83;2.83;;;;;;;9.13;77.68;94856.06;4340800;32;20346;-56
2022/04/05 10:09:11;;;;;;;2.70;2.50;;;;;;;9.34;76.24;94843.19;4341910;32;20308;-57
2022/04/05 10:11:38;;;;;;;2.80;2.60;;;;;;;9.33;77.52;94846.94;4341298;32;20277;-56
2022/04/05 10:14:04;;;;;;;3.90;3.50;;;;;;;9.38;75.17;94846.78;4344286;32;20273;-56
2022/04/05 10:16:31;;;;;;;3.27;2.73;;;;;;;9.38;75.32;94849.44;4326154;32;20289;-56
2022/04/05 10:19:04;;;;;;;3.30;2.83;;;;;;;9.08;76.97;94855.38;4351060;32;20277;-57
2022/04/05 10:21:31;;;;;;;6.13;4.40;;;;;;;9.13;76.33;94848.13;4338341;32;20292;-57
2022/04/05 10:23:57;;;;;;;3.37;3.07;;;;;;;9.26;75.99;94849.97;4325258;32;20228;-57
2022/04/05 10:26:29;;;;;;;5.50;4.10;;;;;;;9.53;75.37;94843.84;4336917;32;20189;-55
2022/04/05 10:28:59;;;;;;;6.80;6.17;;;;;;;9.70;74.91;94839.78;4347626;32;20200;-56
2022/04/05 10:31:49;;;;;;;3.63;3.10;;;;;;;9.98;74.46;94849.97;4348932;32;20215;-55
2022/04/05 10:34:40;;;;;;;6.47;5.80;;;;;;;9.55;74.48;94848.84;4343216;32;20357;-57
2022/04/05 10:37:17;;;;;;;5.03;4.63;;;;;;;9.63;74.99;94838.31;4336797;32;20201;-52
2022/04/05 10:39:44;;;;;;;3.30;3.10;;;;;;;9.62;74.25;94846.56;4329270;32;20189;-57
2022/04/05 10:42:09;;;;;;;3.53;3.23;;;;;;;9.71;73.63;94838.69;4351283;32;20445;-57
2022/04/05 10:44:39;;;;;;;7.27;6.60;;;;;;;10.03;73.46;94841.13;4351950;32;20281;-57
2022/04/05 10:47:07;;;;;;;3.20;2.53;;;;;;;9.73;74.33;94839.97;4347471;32;20219;-56
2022/04/05 10:49:44;;;;;;;3.60;3.30;;;;;;;10.20;72.34;94838.59;4347131;32;20185;-57
2022/04/05 10:52:13;;;;;;;11.47;9.83;;;;;;;10.26;73.85;94840.06;4331550;32;20182;-56
2022/04/05 10:54:44;;;;;;;3.53;3.30;;;;;;;10.35;74.53;94836.69;4353788;32;20207;-57
2022/04/05 10:57:27;;;;;;;13.67;10.27;;;;;;;10.08;74.19;94838.34;4348020;32;20227;-57
2022/04/05 11:00:22;;;;;;;32.90;17.37;;;;;;;10.19;76.29;94845.00;4350044;32;20193;-56
2022/04/05 11:02:54;;;;;;;5.83;4.83;;;;;;;13.31;69.25;94836.16;4352628;32;20204;-54
2022/04/05 11:05:19;;;;;;;7.40;6.70;;;;;;;12.86;65.43;94838.53;4329966;32;20228;-59
2022/04/05 11:07:53;;;;;;;3.37;3.10;;;;;;;12.20;67.96;94844.19;4338989;32;20255;-58
2022/04/05 11:10:37;;;;;;;3.73;3.43;;;;;;;11.24;71.67;94841.72;4344953;32;20244;-55
2022/04/05 11:13:09;;;;;;;4.90;4.40;;;;;;;11.17;72.90;94836.88;4353196;32;20189;-55
2022/04/05 11:15:50;;;;;;;3.40;3.10;;;;;;;10.99;73.28;94841.34;4348280;32;20287;-58
2022/04/05 11:18:18;;;;;;;2.80;2.60;;;;;;;10.75;74.90;94851.56;4352933;32;20197;-58
2022/04/05 11:20:45;;;;;;;3.93;3.53;;;;;;;10.91;74.20;94852.72;4355148;32;20200;-56
2022/04/05 11:23:12;;;;;;;3.47;3.17;;;;;;;10.55;76.21;94841.47;4355034;32;20196;-53
2022/04/05 11:25:38;;;;;;;3.50;3.30;;;;;;;10.45;76.68;94837.19;4354967;32;20209;-53
2022/04/05 11:28:18;;;;;;;2.83;2.63;;;;;;;10.53;77.14;94835.69;4350889;32;20197;-58
2022/04/05 11:30:45;;;;;;;3.73;3.03;;;;;;;10.54;76.97;94835.38;4351512;32;20196;-56
2022/04/05 11:33:14;;;;;;;4.03;3.73;;;;;;;10.88;76.29;94839.28;4348002;32;20216;-57
2022/04/05 11:35:45;;;;;;;3.83;3.50;;;;;;;10.33;77.99;94835.13;4347475;32;20203;-59
2022/04/05 11:38:17;;;;;;;3.27;3.07;;;;;;;10.38;76.69;94830.78;4362125;32;20252;-58
2022/04/05 11:40:43;;;;;;;2.70;2.50;;;;;;;10.11;78.76;94836.97;4350211;32;20233;-55